createdAt,value
2024-03-16T00:00:13.804Z,8.56
2024-03-16T00:00:45.812Z,8.55
2024-03-16T00:01:18.158Z,8.55
2024-03-16T00:01:50.177Z,8.54
2024-03-16T00:02:22.230Z,8.53
2024-03-16T00:02:54.388Z,8.52
2024-03-16T00:03:26.274Z,8.52
2024-03-16T00:03:58.244Z,8.52
2024-03-16T00:04:30.379Z,8.52
2024-03-16T00:05:02.365Z,8.51
2024-03-16T00:05:34.278Z,8.51
2024-03-16T00:06:06.236Z,8.50
2024-03-16T00:06:38.558Z,8.50
2024-03-16T00:07:11.301Z,8.49
2024-03-16T00:07:43.308Z,8.49
2024-03-16T00:08:15.225Z,8.49
2024-03-16T00:08:47.156Z,8.48
2024-03-16T00:09:19.507Z,8.47
2024-03-16T00:09:51.557Z,8.47
2024-03-16T00:10:23.554Z,8.47
2024-03-16T00:10:55.772Z,8.47
2024-03-16T00:11:28.559Z,8.46
2024-03-16T00:12:00.592Z,8.46
2024-03-16T00:12:33.059Z,8.45
2024-03-16T00:13:08.036Z,8.45
2024-03-16T00:13:40.863Z,8.45
2024-03-16T00:14:12.739Z,8.45
2024-03-16T00:14:49.486Z,8.45
2024-03-16T00:15:21.537Z,8.45
2024-03-16T00:15:53.543Z,8.45
2024-03-16T00:16:25.586Z,8.45
2024-03-16T00:16:57.524Z,8.45
2024-03-16T00:17:29.426Z,8.44
2024-03-16T00:18:01.330Z,8.44
2024-03-16T00:18:35.195Z,8.44
2024-03-16T00:19:07.290Z,8.44
2024-03-16T00:19:39.273Z,8.43
2024-03-16T00:20:15.045Z,8.43
2024-03-16T00:20:46.944Z,8.42
2024-03-16T00:21:18.814Z,8.41
2024-03-16T00:21:51.223Z,8.41
2024-03-16T00:22:23.132Z,8.40
2024-03-16T00:22:55.018Z,8.40
2024-03-16T00:23:26.892Z,8.40
2024-03-16T00:23:59.230Z,8.40
2024-03-16T00:24:31.472Z,8.40
2024-03-16T00:25:03.646Z,8.39
2024-03-16T00:25:35.715Z,8.39
2024-03-16T00:26:08.820Z,8.38
2024-03-16T00:26:41.708Z,8.38
2024-03-16T00:27:14.678Z,8.37
2024-03-16T00:27:46.654Z,8.37
2024-03-16T00:28:18.548Z,8.36
2024-03-16T00:28:52.158Z,8.36
2024-03-16T00:29:24.439Z,8.35
2024-03-16T00:29:56.605Z,8.35
2024-03-16T00:30:28.689Z,8.35
2024-03-16T00:31:01.197Z,8.35
2024-03-16T00:31:37.367Z,8.34
2024-03-16T00:32:10.087Z,8.34
2024-03-16T00:32:42.168Z,8.33
2024-03-16T00:33:14.529Z,8.33
2024-03-16T00:33:46.564Z,8.33
2024-03-16T00:34:18.560Z,8.32
2024-03-16T00:34:50.499Z,8.32
2024-03-16T00:35:22.404Z,8.32
2024-03-16T00:35:54.324Z,8.31
2024-03-16T00:36:26.241Z,8.31
2024-03-16T00:36:58.787Z,8.31
2024-03-16T00:37:30.741Z,8.31
2024-03-16T00:38:02.662Z,8.31
2024-03-16T00:38:34.583Z,8.31
2024-03-16T00:39:16.829Z,8.31
2024-03-16T00:39:49.151Z,8.31
2024-03-16T00:40:21.859Z,8.31
2024-03-16T00:40:57.421Z,8.31
2024-03-16T00:41:29.294Z,8.31
2024-03-16T00:42:02.065Z,8.31
2024-03-16T00:42:34.029Z,8.31
2024-03-16T00:43:05.954Z,8.32
2024-03-16T00:43:38.139Z,8.32
2024-03-16T00:44:10.133Z,8.33
2024-03-16T00:44:42.041Z,8.33
2024-03-16T00:45:14.295Z,8.34
2024-03-16T00:45:46.285Z,8.35
2024-03-16T00:46:18.532Z,8.35
2024-03-16T00:46:50.404Z,8.36
2024-03-16T00:47:22.289Z,8.37
2024-03-16T00:47:55.109Z,8.37
2024-03-16T00:48:27.134Z,8.38
2024-03-16T00:48:59.091Z,8.39
2024-03-16T00:49:30.982Z,8.40
2024-03-16T00:50:03.240Z,8.41
2024-03-16T00:50:35.148Z,8.41
2024-03-16T00:51:07.068Z,8.42
2024-03-16T00:51:38.957Z,8.43
2024-03-16T00:52:11.054Z,8.44
2024-03-16T00:52:42.984Z,8.44
2024-03-16T00:53:14.973Z,8.45
2024-03-16T00:53:47.478Z,8.46
2024-03-16T00:54:19.426Z,8.47
2024-03-16T00:54:51.410Z,8.48
2024-03-16T00:55:23.373Z,8.48
2024-03-16T00:55:55.563Z,8.49
2024-03-16T00:56:28.179Z,8.50
2024-03-16T00:57:00.079Z,8.51
2024-03-16T00:57:32.103Z,8.51
2024-03-16T00:58:04.643Z,8.51
2024-03-16T00:58:36.769Z,8.52
2024-03-16T00:59:10.058Z,8.52
2024-03-16T00:59:42.020Z,8.52
2024-03-16T01:00:15.864Z,8.52
2024-03-16T01:00:47.874Z,8.53
2024-03-16T01:01:20.034Z,8.53
2024-03-16T01:01:53.519Z,8.53
2024-03-16T01:02:25.649Z,8.53
2024-03-16T01:02:57.572Z,8.52
2024-03-16T01:03:29.536Z,8.52
2024-03-16T01:04:02.256Z,8.52
2024-03-16T01:04:34.306Z,8.53
2024-03-16T01:05:06.355Z,8.53
2024-03-16T01:05:38.276Z,8.53
2024-03-16T01:06:10.655Z,8.52
2024-03-16T01:06:42.636Z,8.52
2024-03-16T01:07:14.574Z,8.52
2024-03-16T01:07:46.539Z,8.52
2024-03-16T01:08:18.405Z,8.51
2024-03-16T01:08:50.313Z,8.51
2024-03-16T01:09:23.508Z,8.51
2024-03-16T01:09:56.832Z,8.51
2024-03-16T01:10:28.880Z,8.51
2024-03-16T01:11:00.845Z,8.51
2024-03-16T01:11:33.550Z,8.51
2024-03-16T01:12:05.540Z,8.51
2024-03-16T01:12:37.471Z,8.51
2024-03-16T01:13:09.420Z,8.51
2024-03-16T01:13:41.412Z,8.51
2024-03-16T01:14:13.326Z,8.52
2024-03-16T01:14:45.214Z,8.52
2024-03-16T01:15:18.006Z,8.52
2024-03-16T01:15:50.058Z,8.53
2024-03-16T01:16:22.010Z,8.53
2024-03-16T01:16:54.108Z,8.54
2024-03-16T01:17:26.042Z,8.54
2024-03-16T01:17:57.974Z,8.55
2024-03-16T01:18:30.225Z,8.55
2024-03-16T01:19:02.293Z,8.56
2024-03-16T01:19:36.387Z,8.56
2024-03-16T01:20:10.492Z,8.57
2024-03-16T01:20:45.742Z,8.58
2024-03-16T01:21:17.690Z,8.59
2024-03-16T01:21:49.620Z,8.60
2024-03-16T01:22:23.173Z,8.61
2024-03-16T01:22:55.084Z,8.63
2024-03-16T01:23:26.956Z,8.64
2024-03-16T01:23:58.816Z,8.65
2024-03-16T01:24:30.716Z,8.66
2024-03-16T01:25:03.135Z,8.67
2024-03-16T01:25:35.135Z,8.68
2024-03-16T01:26:08.359Z,8.69
2024-03-16T01:26:40.332Z,8.69
2024-03-16T01:27:12.449Z,8.69
2024-03-16T01:27:44.365Z,8.70
2024-03-16T01:28:16.330Z,8.70
2024-03-16T01:28:48.430Z,8.70
2024-03-16T01:29:20.308Z,8.71
2024-03-16T01:29:52.366Z,8.71
2024-03-16T01:30:25.628Z,8.72
2024-03-16T01:30:58.393Z,8.72
2024-03-16T01:31:30.801Z,8.72
2024-03-16T01:32:05.562Z,8.73
2024-03-16T01:32:37.484Z,8.74
2024-03-16T01:33:09.411Z,8.74
2024-03-16T01:33:41.325Z,8.74
2024-03-16T01:34:13.348Z,8.74
2024-03-16T01:34:45.256Z,8.75
2024-03-16T01:35:17.205Z,8.75
2024-03-16T01:35:49.664Z,8.76
2024-03-16T01:36:21.581Z,8.76
2024-03-16T01:36:54.198Z,8.77
2024-03-16T01:37:26.112Z,8.77
2024-03-16T01:37:58.245Z,8.77
2024-03-16T01:38:30.250Z,8.78
2024-03-16T01:39:02.146Z,8.78
2024-03-16T01:39:34.330Z,8.78
2024-03-16T01:40:08.074Z,8.78
2024-03-16T01:40:40.065Z,8.78
2024-03-16T01:41:12.069Z,8.79
2024-03-16T01:41:43.992Z,8.79
2024-03-16T01:42:15.928Z,8.79
2024-03-16T01:42:47.887Z,8.79
2024-03-16T01:43:19.928Z,8.79
2024-03-16T01:43:51.885Z,8.79
2024-03-16T01:44:23.841Z,8.80
2024-03-16T01:45:14.735Z,8.80
2024-03-16T01:45:46.952Z,8.80
2024-03-16T01:46:18.985Z,8.80
2024-03-16T01:46:50.868Z,8.80
2024-03-16T01:47:22.875Z,8.80
2024-03-16T01:47:56.253Z,8.80
2024-03-16T01:48:28.317Z,8.81
2024-03-16T01:49:00.660Z,8.81
2024-03-16T01:49:32.552Z,8.81
2024-03-16T01:50:04.566Z,8.81
2024-03-16T01:50:40.097Z,8.81
2024-03-16T01:51:13.455Z,8.82
2024-03-16T01:51:45.445Z,8.82
2024-03-16T01:52:17.367Z,8.82
2024-03-16T01:52:49.442Z,8.82
2024-03-16T01:53:21.371Z,8.82
2024-03-16T01:53:53.290Z,8.82
2024-03-16T01:54:25.190Z,8.83
2024-03-16T01:54:57.220Z,8.84
2024-03-16T01:55:29.174Z,8.84
2024-03-16T01:56:01.070Z,8.84
2024-03-16T01:56:33.542Z,8.84
2024-03-16T01:57:05.505Z,8.84
2024-03-16T01:57:38.853Z,8.84
2024-03-16T01:58:10.809Z,8.84
2024-03-16T01:58:46.580Z,8.84
2024-03-16T01:59:18.834Z,8.83
2024-03-16T01:59:50.769Z,8.82
2024-03-16T02:00:22.640Z,8.82
2024-03-16T02:00:54.837Z,8.82
2024-03-16T02:01:27.324Z,8.81
2024-03-16T02:02:01.969Z,8.80
2024-03-16T02:02:35.380Z,8.79
2024-03-16T02:03:07.304Z,8.77
2024-03-16T02:03:40.872Z,8.76
2024-03-16T02:04:12.851Z,8.75
2024-03-16T02:04:44.753Z,8.74
2024-03-16T02:05:16.672Z,8.72
2024-03-16T02:05:48.582Z,8.71
2024-03-16T02:06:20.491Z,8.70
2024-03-16T02:06:52.422Z,8.69
2024-03-16T02:07:24.339Z,8.67
2024-03-16T02:07:56.257Z,8.65
2024-03-16T02:08:28.180Z,8.64
2024-03-16T02:09:01.532Z,8.63
2024-03-16T02:09:33.465Z,8.62
2024-03-16T02:10:06.688Z,8.61
2024-03-16T02:10:38.801Z,8.59
2024-03-16T02:11:10.685Z,8.58
2024-03-16T02:11:42.625Z,8.56
2024-03-16T02:12:14.565Z,8.56
2024-03-16T02:12:46.517Z,8.55
2024-03-16T02:13:18.508Z,8.54
2024-03-16T02:13:50.535Z,8.54
2024-03-16T02:14:22.474Z,8.53
2024-03-16T02:14:54.362Z,8.53
2024-03-16T02:15:26.594Z,8.52
2024-03-16T02:15:58.632Z,8.52
2024-03-16T02:16:30.607Z,8.52
2024-03-16T02:17:02.502Z,8.51
2024-03-16T02:17:34.469Z,8.51
2024-03-16T02:18:06.428Z,8.51
2024-03-16T02:18:38.411Z,8.50
2024-03-16T02:19:10.327Z,8.50
2024-03-16T02:19:42.375Z,8.49
2024-03-16T02:20:17.393Z,8.49
2024-03-16T02:20:49.472Z,8.48
2024-03-16T02:21:21.421Z,8.48
2024-03-16T02:21:53.347Z,8.48
2024-03-16T02:22:25.260Z,8.48
2024-03-16T02:22:57.188Z,8.47
2024-03-16T02:23:32.060Z,8.46
2024-03-16T02:24:03.991Z,8.45
2024-03-16T02:24:36.461Z,8.45
2024-03-16T02:25:09.701Z,8.44
2024-03-16T02:25:41.928Z,8.44
2024-03-16T02:26:13.836Z,8.44
2024-03-16T02:26:47.033Z,8.44
2024-03-16T02:27:21.258Z,8.43
2024-03-16T02:27:53.389Z,8.43
2024-03-16T02:28:25.307Z,8.43
2024-03-16T02:28:57.328Z,8.43
2024-03-16T02:29:29.658Z,8.43
2024-03-16T02:30:01.585Z,8.43
2024-03-16T02:30:33.574Z,8.44
2024-03-16T02:31:06.280Z,8.44
2024-03-16T02:31:38.295Z,8.45
2024-03-16T02:32:10.680Z,8.46
2024-03-16T02:32:42.615Z,8.47
2024-03-16T02:33:15.350Z,8.47
2024-03-16T02:33:47.296Z,8.49
2024-03-16T02:34:19.280Z,8.50
2024-03-16T02:34:52.024Z,8.51
2024-03-16T02:35:24.231Z,8.52
2024-03-16T02:35:56.850Z,8.52
2024-03-16T02:36:28.889Z,8.53
2024-03-16T02:37:01.194Z,8.54
2024-03-16T02:37:33.925Z,8.56
2024-03-16T02:38:05.812Z,8.57
2024-03-16T02:38:37.753Z,8.58
2024-03-16T02:39:12.293Z,8.59
2024-03-16T02:39:44.359Z,8.60
2024-03-16T02:40:16.895Z,8.61
2024-03-16T02:40:48.833Z,8.63
2024-03-16T02:41:20.735Z,8.64
2024-03-16T02:41:57.198Z,8.66
2024-03-16T02:42:29.176Z,8.68
2024-03-16T02:43:01.187Z,8.69
2024-03-16T02:43:33.113Z,8.70
2024-03-16T02:44:06.244Z,8.72
2024-03-16T02:44:38.175Z,8.73
2024-03-16T02:45:10.885Z,8.74
2024-03-16T02:45:42.868Z,8.76
2024-03-16T02:46:14.831Z,8.78
2024-03-16T02:46:46.991Z,8.81
2024-03-16T02:47:19.061Z,8.83
2024-03-16T02:47:50.996Z,8.85
2024-03-16T02:48:22.877Z,8.86
2024-03-16T02:48:54.799Z,8.88
2024-03-16T02:49:29.420Z,8.90
2024-03-16T02:50:05.030Z,8.92
2024-03-16T02:50:37.137Z,8.94
2024-03-16T02:51:09.051Z,8.95
2024-03-16T02:51:41.000Z,8.97
2024-03-16T02:52:14.208Z,8.98
2024-03-16T02:52:46.127Z,9.00
2024-03-16T02:53:18.034Z,9.02
2024-03-16T02:53:51.288Z,9.03
2024-03-16T02:54:23.251Z,9.04
2024-03-16T02:54:55.203Z,9.06
2024-03-16T02:55:27.113Z,9.07
2024-03-16T02:55:59.048Z,9.08
2024-03-16T02:56:31.469Z,9.09
2024-03-16T02:57:03.381Z,9.11
2024-03-16T02:57:35.422Z,9.12
2024-03-16T02:58:07.483Z,9.13
2024-03-16T02:58:40.257Z,9.14
2024-03-16T02:59:12.604Z,9.16
2024-03-16T02:59:44.520Z,9.16
2024-03-16T03:00:18.100Z,9.17
2024-03-16T03:00:50.718Z,9.18
2024-03-16T03:01:22.859Z,9.19
2024-03-16T03:01:56.953Z,9.20
2024-03-16T03:02:29.331Z,9.21
2024-03-16T03:03:01.218Z,9.22
2024-03-16T03:03:33.217Z,9.23
2024-03-16T03:04:06.607Z,9.24
2024-03-16T03:04:38.568Z,9.26
2024-03-16T03:05:13.168Z,9.27
2024-03-16T03:05:45.122Z,9.28
2024-03-16T03:06:16.995Z,9.29
2024-03-16T03:06:48.952Z,9.30
2024-03-16T03:07:20.899Z,9.31
2024-03-16T03:07:53.967Z,9.31
2024-03-16T03:08:26.114Z,9.32
2024-03-16T03:08:58.049Z,9.34
2024-03-16T03:09:30.615Z,9.34
2024-03-16T03:10:02.694Z,9.35
2024-03-16T03:10:34.668Z,9.37
2024-03-16T03:11:06.709Z,9.38
2024-03-16T03:11:39.382Z,9.39
2024-03-16T03:12:11.491Z,9.40
2024-03-16T03:12:43.514Z,9.41
2024-03-16T03:13:15.768Z,9.42
2024-03-16T03:13:50.594Z,9.43
2024-03-16T03:14:22.670Z,9.44
2024-03-16T03:14:54.561Z,9.45
2024-03-16T03:15:26.455Z,9.47
2024-03-16T03:15:58.417Z,9.48
2024-03-16T03:16:30.324Z,9.49
2024-03-16T03:17:02.568Z,9.50
2024-03-16T03:17:34.578Z,9.51
2024-03-16T03:18:07.162Z,9.52
2024-03-16T03:18:39.111Z,9.53
2024-03-16T03:19:11.281Z,9.54
2024-03-16T03:19:44.203Z,9.56
2024-03-16T03:20:16.178Z,9.57
2024-03-16T03:20:48.124Z,9.58
2024-03-16T03:21:20.076Z,9.59
2024-03-16T03:21:52.060Z,9.60
2024-03-16T03:22:24.037Z,9.61
2024-03-16T03:22:55.929Z,9.62
2024-03-16T03:23:29.361Z,9.63
2024-03-16T03:24:01.295Z,9.64
2024-03-16T03:24:33.219Z,9.66
2024-03-16T03:25:05.928Z,9.67
2024-03-16T03:25:39.046Z,9.69
2024-03-16T03:26:11.251Z,9.69
2024-03-16T03:26:43.179Z,9.70
2024-03-16T03:27:15.158Z,9.72
2024-03-16T03:27:47.173Z,9.73
2024-03-16T03:28:19.153Z,9.74
2024-03-16T03:28:51.075Z,9.76
2024-03-16T03:29:22.984Z,9.77
2024-03-16T03:29:54.862Z,9.78
2024-03-16T03:30:26.823Z,9.80
2024-03-16T03:30:58.763Z,9.81
2024-03-16T03:31:30.670Z,9.82
2024-03-16T03:32:02.584Z,9.83
2024-03-16T03:32:34.481Z,9.84
2024-03-16T03:33:06.460Z,9.84
2024-03-16T03:33:39.492Z,9.85
2024-03-16T03:34:11.521Z,9.85
2024-03-16T03:34:43.672Z,9.85
2024-03-16T03:35:15.779Z,9.84
2024-03-16T03:35:47.990Z,9.84
2024-03-16T03:36:20.281Z,9.84
2024-03-16T03:36:52.219Z,9.84
2024-03-16T03:37:24.120Z,9.83
2024-03-16T03:37:56.010Z,9.82
2024-03-16T03:38:27.931Z,9.82
2024-03-16T03:38:59.857Z,9.81
2024-03-16T03:40:04.143Z,9.81
2024-03-16T03:40:36.353Z,9.80
2024-03-16T03:41:09.279Z,9.80
2024-03-16T03:41:41.349Z,9.79
2024-03-16T03:42:13.293Z,9.79
2024-03-16T03:42:49.414Z,9.79
2024-03-16T03:43:23.225Z,9.79
2024-03-16T03:44:10.257Z,9.79
2024-03-16T03:44:51.331Z,9.78
2024-03-16T03:45:28.818Z,9.77
2024-03-16T03:46:00.887Z,9.77
2024-03-16T03:46:51.241Z,9.77
2024-03-16T03:47:31.511Z,9.77
2024-03-16T03:48:26.086Z,9.77
2024-03-16T03:49:13.490Z,9.77
2024-03-16T03:49:52.075Z,9.76
2024-03-16T03:50:30.501Z,9.76
2024-03-16T03:51:02.792Z,9.76
2024-03-16T03:51:34.718Z,9.76
2024-03-16T03:52:06.886Z,9.76
2024-03-16T03:52:38.962Z,9.76
2024-03-16T03:53:10.931Z,9.76
2024-03-16T03:53:42.825Z,9.77
2024-03-16T03:54:14.718Z,9.77
2024-03-16T03:54:46.635Z,9.74
2024-03-16T03:55:19.450Z,9.64
2024-03-16T03:55:51.399Z,9.52
2024-03-16T03:56:23.321Z,9.44
2024-03-16T03:56:55.277Z,9.39
2024-03-16T03:57:27.289Z,9.35
2024-03-16T03:57:59.298Z,9.31
2024-03-16T03:58:31.226Z,9.27
2024-03-16T03:59:03.401Z,9.22
2024-03-16T03:59:35.308Z,9.18
2024-03-16T04:00:09.734Z,9.13
2024-03-16T04:00:44.538Z,9.09
2024-03-16T04:01:16.642Z,9.03
2024-03-16T04:01:48.698Z,8.94
2024-03-16T04:02:20.653Z,8.83
2024-03-16T04:02:52.622Z,8.74
2024-03-16T04:03:24.488Z,8.67
2024-03-16T04:03:57.336Z,8.59
2024-03-16T04:04:29.262Z,8.54
2024-03-16T04:05:01.164Z,8.51
2024-03-16T04:05:33.122Z,8.47
2024-03-16T04:06:05.424Z,8.42
2024-03-16T04:06:37.695Z,8.39
2024-03-16T04:07:10.207Z,8.37
2024-03-16T04:07:43.113Z,8.35
2024-03-16T04:08:15.010Z,8.32
2024-03-16T04:08:47.098Z,8.30
2024-03-16T04:09:19.033Z,8.27
2024-03-16T04:09:51.136Z,8.24
2024-03-16T04:10:23.233Z,8.21
2024-03-16T04:10:55.221Z,8.19
2024-03-16T04:11:27.205Z,8.16
2024-03-16T04:11:59.153Z,8.15
2024-03-16T04:12:31.273Z,8.13
2024-03-16T04:13:03.422Z,8.11
2024-03-16T04:13:35.344Z,8.09
2024-03-16T04:14:08.231Z,8.08
2024-03-16T04:14:40.150Z,8.06
2024-03-16T04:15:12.077Z,8.05
2024-03-16T04:15:44.075Z,8.05
2024-03-16T04:16:16.201Z,8.04
2024-03-16T04:16:49.450Z,8.03
2024-03-16T04:17:21.382Z,8.02
2024-03-16T04:17:53.503Z,8.01
2024-03-16T04:18:25.445Z,8.00
2024-03-16T04:18:57.351Z,8.00
2024-03-16T04:19:29.241Z,7.99
2024-03-16T04:20:01.247Z,7.98
2024-03-16T04:20:33.126Z,7.97
2024-03-16T04:21:08.163Z,7.95
2024-03-16T04:21:40.253Z,7.94
2024-03-16T04:22:14.949Z,7.93
2024-03-16T04:22:47.980Z,7.92
2024-03-16T04:23:19.849Z,7.92
2024-03-16T04:23:51.733Z,7.91
2024-03-16T04:24:23.653Z,7.91
2024-03-16T04:24:55.576Z,7.91
2024-03-16T04:25:27.557Z,7.91
2024-03-16T04:25:59.424Z,7.91
2024-03-16T04:26:31.372Z,7.91
2024-03-16T04:27:03.299Z,7.91
2024-03-16T04:27:35.203Z,7.91
2024-03-16T04:28:07.202Z,7.91
2024-03-16T04:28:39.107Z,7.91
2024-03-16T04:29:11.030Z,7.91
2024-03-16T04:29:42.913Z,7.91
2024-03-16T04:30:14.884Z,7.91
2024-03-16T04:30:46.846Z,7.91
2024-03-16T04:31:18.853Z,7.91
2024-03-16T04:31:50.783Z,7.91
2024-03-16T04:32:27.972Z,7.91
2024-03-16T04:32:59.890Z,7.90
2024-03-16T04:33:31.989Z,7.90
2024-03-16T04:34:04.057Z,7.90
2024-03-16T04:34:37.587Z,7.89
2024-03-16T04:35:09.830Z,7.89
2024-03-16T04:35:41.745Z,7.89
2024-03-16T04:36:14.026Z,7.88
2024-03-16T04:36:46.032Z,7.87
2024-03-16T04:37:18.516Z,7.86
2024-03-16T04:37:50.434Z,7.86
2024-03-16T04:38:22.653Z,7.86
2024-03-16T04:38:54.561Z,7.86
2024-03-16T04:39:26.853Z,7.86
2024-03-16T04:39:59.656Z,7.86
2024-03-16T04:40:32.057Z,7.86
2024-03-16T04:41:03.979Z,7.86
2024-03-16T04:41:35.905Z,7.86
2024-03-16T04:42:07.782Z,7.86
2024-03-16T04:42:39.720Z,7.85
2024-03-16T04:43:11.805Z,7.85
2024-03-16T04:43:46.218Z,7.84
2024-03-16T04:44:18.079Z,7.84
2024-03-16T04:44:49.965Z,7.84
2024-03-16T04:45:21.883Z,7.83
2024-03-16T04:45:53.825Z,7.82
2024-03-16T04:46:26.087Z,7.82
2024-03-16T04:46:58.062Z,7.82
2024-03-16T04:47:30.007Z,7.82
2024-03-16T04:48:01.967Z,7.82
2024-03-16T04:48:33.944Z,7.82
2024-03-16T04:49:06.078Z,7.82
2024-03-16T04:49:38.086Z,7.82
2024-03-16T04:50:12.683Z,7.81
2024-03-16T04:50:45.537Z,7.81
2024-03-16T04:51:18.254Z,7.81
2024-03-16T04:51:50.393Z,7.82
2024-03-16T04:52:22.353Z,7.82
2024-03-16T04:52:54.234Z,7.82
2024-03-16T04:53:26.136Z,7.82
2024-03-16T04:53:58.064Z,7.82
2024-03-16T04:54:29.997Z,7.82
2024-03-16T04:55:01.973Z,7.82
2024-03-16T04:55:34.795Z,7.82
2024-03-16T04:56:06.699Z,7.83
2024-03-16T04:56:38.639Z,7.83
2024-03-16T04:57:10.557Z,7.84
2024-03-16T04:57:42.503Z,7.84
2024-03-16T04:58:14.493Z,7.83
2024-03-16T04:58:46.498Z,7.83
2024-03-16T04:59:18.407Z,7.84
2024-03-16T04:59:50.361Z,7.84
2024-03-16T05:00:22.262Z,7.84
2024-03-16T05:00:54.383Z,7.85
2024-03-16T05:01:26.750Z,7.85
2024-03-16T05:01:58.777Z,7.86
2024-03-16T05:02:31.900Z,7.87
2024-03-16T05:03:03.933Z,7.87
2024-03-16T05:03:35.948Z,7.88
2024-03-16T05:04:09.067Z,7.88
2024-03-16T05:04:41.037Z,7.89
2024-03-16T05:05:12.954Z,7.89
2024-03-16T05:05:45.025Z,7.90
2024-03-16T05:06:16.900Z,7.91
2024-03-16T05:06:48.820Z,7.91
2024-03-16T05:07:20.896Z,7.91
2024-03-16T05:07:52.917Z,7.92
2024-03-16T05:08:24.832Z,7.93
2024-03-16T05:08:56.767Z,7.93
2024-03-16T05:09:28.714Z,7.93
2024-03-16T05:10:00.715Z,7.93
2024-03-16T05:10:32.652Z,7.94
2024-03-16T05:11:04.636Z,7.95
2024-03-16T05:11:39.739Z,7.95
2024-03-16T05:12:11.609Z,7.96
2024-03-16T05:12:43.896Z,7.97
2024-03-16T05:13:15.890Z,7.97
2024-03-16T05:13:47.777Z,7.97
2024-03-16T05:14:19.682Z,7.97
2024-03-16T05:14:51.693Z,7.98
2024-03-16T05:15:23.624Z,7.98
2024-03-16T05:15:55.613Z,7.99
2024-03-16T05:16:27.584Z,8.00
2024-03-16T05:16:59.514Z,8.00
2024-03-16T05:17:32.808Z,8.00
2024-03-16T05:18:05.165Z,8.00
2024-03-16T05:18:37.177Z,8.01
2024-03-16T05:19:09.191Z,8.00
2024-03-16T05:19:41.194Z,8.00
2024-03-16T05:20:13.150Z,8.00
2024-03-16T05:20:45.714Z,8.00
2024-03-16T05:21:17.597Z,8.00
2024-03-16T05:21:49.530Z,8.01
2024-03-16T05:22:21.567Z,8.01
2024-03-16T05:22:53.830Z,8.01
2024-03-16T05:23:25.773Z,8.01
2024-03-16T05:23:57.780Z,8.01
2024-03-16T05:24:29.721Z,8.01
2024-03-16T05:25:01.668Z,8.01
2024-03-16T05:25:33.687Z,8.01
2024-03-16T05:26:05.561Z,8.00
2024-03-16T05:26:37.964Z,8.00
2024-03-16T05:27:11.408Z,8.00
2024-03-16T05:27:44.184Z,8.00
2024-03-16T05:28:17.924Z,8.01
2024-03-16T05:28:50.378Z,8.01
2024-03-16T05:29:22.326Z,8.01
2024-03-16T05:29:54.232Z,8.01
2024-03-16T05:30:26.115Z,8.02
2024-03-16T05:30:58.076Z,8.02
2024-03-16T05:31:30.120Z,8.02
2024-03-16T05:32:02.753Z,8.03
2024-03-16T05:32:34.688Z,8.03
2024-03-16T05:33:06.659Z,8.03
2024-03-16T05:33:38.617Z,8.03
2024-03-16T05:34:10.616Z,8.04
2024-03-16T05:34:42.535Z,8.04
2024-03-16T05:35:14.443Z,8.05
2024-03-16T05:35:46.333Z,8.05
2024-03-16T05:36:18.359Z,8.05
2024-03-16T05:36:50.299Z,8.06
2024-03-16T05:37:22.334Z,8.06
2024-03-16T05:37:54.253Z,8.06
2024-03-16T05:38:26.167Z,8.06
2024-03-16T05:38:58.040Z,8.06
2024-03-16T05:39:30.009Z,8.05
2024-03-16T05:40:02.080Z,8.05
2024-03-16T05:40:34.145Z,8.06
2024-03-16T05:41:06.642Z,8.06
2024-03-16T05:41:38.529Z,8.06
2024-03-16T05:42:12.537Z,8.06
2024-03-16T05:42:44.760Z,8.06
2024-03-16T05:43:16.859Z,8.07
2024-03-16T05:43:48.891Z,8.08
2024-03-16T05:44:20.847Z,8.09
2024-03-16T05:44:52.774Z,8.09
2024-03-16T05:45:24.671Z,8.09
2024-03-16T05:45:56.931Z,8.10
2024-03-16T05:46:28.853Z,8.10
2024-03-16T05:47:00.769Z,8.11
2024-03-16T05:47:32.722Z,8.12
2024-03-16T05:48:04.890Z,8.13
2024-03-16T05:48:36.815Z,8.14
2024-03-16T05:49:08.830Z,8.14
2024-03-16T05:49:41.291Z,8.15
2024-03-16T05:50:13.158Z,8.15
2024-03-16T05:50:45.515Z,8.17
2024-03-16T05:51:18.612Z,8.18
2024-03-16T05:51:51.233Z,8.19
2024-03-16T05:52:23.179Z,8.20
2024-03-16T05:52:55.400Z,8.21
2024-03-16T05:53:27.339Z,8.22
2024-03-16T05:54:00.809Z,8.23
2024-03-16T05:54:35.540Z,8.25
2024-03-16T05:55:07.893Z,8.27
2024-03-16T05:55:40.199Z,8.28
2024-03-16T05:56:14.135Z,8.29
2024-03-16T05:56:46.062Z,8.31
2024-03-16T05:57:18.169Z,8.33
2024-03-16T05:57:50.248Z,8.34
2024-03-16T05:58:23.084Z,8.35
2024-03-16T05:58:54.980Z,8.37
2024-03-16T05:59:26.904Z,8.38
2024-03-16T05:59:58.784Z,8.40
2024-03-16T06:00:30.827Z,8.41
2024-03-16T06:01:05.524Z,8.43
2024-03-16T06:01:38.110Z,8.46
2024-03-16T06:02:10.274Z,8.48
2024-03-16T06:02:42.240Z,8.50
2024-03-16T06:03:14.153Z,8.53
2024-03-16T06:03:46.093Z,8.55
2024-03-16T06:04:21.055Z,8.57
2024-03-16T06:04:53.110Z,8.60
2024-03-16T06:05:25.029Z,8.62
2024-03-16T06:05:56.962Z,8.64
2024-03-16T06:06:28.924Z,8.66
2024-03-16T06:07:00.975Z,8.69
2024-03-16T06:07:33.000Z,8.71
2024-03-16T06:08:06.298Z,8.74
2024-03-16T06:08:38.243Z,8.76
2024-03-16T06:09:10.154Z,8.78
2024-03-16T06:09:42.101Z,8.80
2024-03-16T06:10:14.153Z,8.83
2024-03-16T06:10:46.156Z,8.85
2024-03-16T06:11:18.113Z,8.86
2024-03-16T06:11:50.039Z,8.88
2024-03-16T06:12:22.210Z,8.90
2024-03-16T06:12:54.118Z,8.93
2024-03-16T06:13:26.198Z,8.95
2024-03-16T06:13:58.114Z,8.97
2024-03-16T06:14:29.990Z,8.99
2024-03-16T06:15:01.909Z,9.01
2024-03-16T06:15:34.093Z,9.03
2024-03-16T06:16:06.724Z,9.06
2024-03-16T06:16:38.893Z,9.08
2024-03-16T06:17:10.799Z,9.10
2024-03-16T06:17:42.748Z,9.12
2024-03-16T06:18:14.968Z,9.14
2024-03-16T06:18:48.846Z,9.16
2024-03-16T06:19:20.907Z,9.19
2024-03-16T06:19:54.976Z,9.21
2024-03-16T06:20:26.894Z,9.23
2024-03-16T06:20:58.784Z,9.25
2024-03-16T06:21:30.710Z,9.27
2024-03-16T06:22:04.237Z,9.29
2024-03-16T06:22:36.299Z,9.32
2024-03-16T06:23:09.646Z,9.34
2024-03-16T06:23:41.622Z,9.37
2024-03-16T06:24:13.889Z,9.40
2024-03-16T06:24:48.413Z,9.42
2024-03-16T06:25:21.552Z,9.45
2024-03-16T06:25:54.830Z,9.47
2024-03-16T06:26:29.398Z,9.49
2024-03-16T06:27:07.248Z,9.51
2024-03-16T06:27:44.742Z,9.54
2024-03-16T06:28:22.935Z,9.56
2024-03-16T06:29:06.525Z,9.58
2024-03-16T06:29:40.182Z,9.61
2024-03-16T06:30:14.182Z,9.64
2024-03-16T06:30:57.568Z,9.66
2024-03-16T06:31:33.126Z,9.70
2024-03-16T06:32:07.977Z,9.73
2024-03-16T06:32:45.777Z,9.75
2024-03-16T06:33:28.213Z,9.78
2024-03-16T06:34:00.385Z,9.80
2024-03-16T06:34:34.613Z,9.82
2024-03-16T06:35:06.786Z,9.85
2024-03-16T06:35:38.994Z,9.87
2024-03-16T06:36:10.983Z,9.89
2024-03-16T06:36:42.949Z,9.91
2024-03-16T06:37:14.924Z,9.93
2024-03-16T06:37:46.904Z,9.95
2024-03-16T06:38:19.822Z,9.97
2024-03-16T06:38:51.703Z,9.99
2024-03-16T06:39:25.116Z,10.01
2024-03-16T06:39:57.095Z,10.03
2024-03-16T06:40:29.045Z,10.05
2024-03-16T06:41:01.025Z,10.07
2024-03-16T06:41:32.913Z,10.09
2024-03-16T06:42:05.316Z,10.10
2024-03-16T06:42:37.230Z,10.12
2024-03-16T06:43:09.300Z,10.13
2024-03-16T06:43:41.254Z,10.15
2024-03-16T06:44:13.149Z,10.16
2024-03-16T06:44:45.616Z,10.17
2024-03-16T06:45:17.618Z,10.19
2024-03-16T06:45:49.510Z,10.20
2024-03-16T06:46:22.937Z,10.22
2024-03-16T06:46:54.869Z,10.23
2024-03-16T06:47:26.847Z,10.25
2024-03-16T06:47:58.855Z,10.26
2024-03-16T06:48:30.852Z,10.28
2024-03-16T06:49:07.574Z,10.29
2024-03-16T06:49:40.093Z,10.31
2024-03-16T06:50:12.224Z,10.32
2024-03-16T06:50:47.142Z,10.34
2024-03-16T06:51:20.100Z,10.35
2024-03-16T06:51:52.077Z,10.36
2024-03-16T06:52:25.914Z,10.37
2024-03-16T06:52:57.914Z,10.38
2024-03-16T06:53:29.859Z,10.39
2024-03-16T06:54:07.902Z,10.40
2024-03-16T06:54:40.891Z,10.42
2024-03-16T06:55:14.597Z,10.43
2024-03-16T06:55:52.486Z,10.44
2024-03-16T06:56:24.508Z,10.45
2024-03-16T06:56:56.404Z,10.45
2024-03-16T06:57:28.384Z,10.45
2024-03-16T06:58:00.340Z,10.46
2024-03-16T06:58:32.334Z,10.46
2024-03-16T06:59:04.199Z,10.47
2024-03-16T06:59:36.166Z,10.48
2024-03-16T07:00:10.392Z,10.48
2024-03-16T07:00:42.371Z,10.49
2024-03-16T07:01:15.819Z,10.50
2024-03-16T07:01:47.798Z,10.51
2024-03-16T07:02:19.831Z,10.52
2024-03-16T07:02:51.720Z,10.52
2024-03-16T07:03:23.587Z,10.53
2024-03-16T07:03:55.538Z,10.54
2024-03-16T07:04:27.460Z,10.54
2024-03-16T07:05:01.652Z,10.55
2024-03-16T07:05:33.726Z,10.56
2024-03-16T07:06:07.719Z,10.56
2024-03-16T07:06:39.809Z,10.56
2024-03-16T07:07:11.770Z,10.56
2024-03-16T07:07:43.770Z,10.56
2024-03-16T07:08:18.536Z,10.57
2024-03-16T07:08:50.579Z,10.58
2024-03-16T07:09:22.534Z,10.59
2024-03-16T07:09:56.149Z,10.60
2024-03-16T07:10:31.267Z,10.61
2024-03-16T07:11:03.613Z,10.63
2024-03-16T07:11:35.785Z,10.64
2024-03-16T07:12:08.090Z,10.65
2024-03-16T07:12:40.020Z,10.66
2024-03-16T07:13:12.019Z,10.68